createdAt,value
2022-09-07T00:00:11.293Z,100341.75
2022-09-07T00:04:24.544Z,100348.09
2022-09-07T00:08:31.651Z,100346.16
2022-09-07T00:12:48.208Z,100332.59
2022-09-07T00:16:51.752Z,100327.69
2022-09-07T00:21:00.116Z,100321.00
2022-09-07T00:25:04.001Z,100317.16
2022-09-07T00:29:11.802Z,100312.38
2022-09-07T00:33:18.723Z,100303.88
2022-09-07T00:37:22.281Z,100317.22
2022-09-07T00:41:38.800Z,100321.09
2022-09-07T00:45:48.006Z,100319.44
2022-09-07T00:49:56.397Z,100312.19
2022-09-07T00:54:06.410Z,100305.63
2022-09-07T00:58:51.189Z,100290.69
2022-09-07T01:03:00.764Z,100297.84
2022-09-07T01:07:07.654Z,100296.16
2022-09-07T01:11:17.878Z,100299.16
2022-09-07T01:15:23.768Z,100299.47
2022-09-07T01:19:54.969Z,100295.63
2022-09-07T01:24:42.061Z,100294.72
2022-09-07T01:28:53.812Z,100287.81
2022-09-07T01:33:15.273Z,100287.22
2022-09-07T01:37:36.938Z,100294.38
2022-09-07T01:41:50.912Z,100295.25
2022-09-07T01:46:22.891Z,100287.75
2022-09-07T01:50:35.698Z,100283.88
2022-09-07T01:54:47.539Z,100265.91
2022-09-07T01:58:58.191Z,100260.09
2022-09-07T02:03:10.985Z,100257.84
2022-09-07T02:07:18.835Z,100268.34
2022-09-07T02:11:31.823Z,100262.22
2022-09-07T02:16:33.114Z,100252.75
2022-09-07T02:20:40.685Z,100245.00
2022-09-07T02:24:48.867Z,100243.81
2022-09-07T02:28:54.247Z,100240.75
2022-09-07T02:33:11.407Z,100232.41
2022-09-07T02:37:17.835Z,100230.41
2022-09-07T02:41:32.989Z,100222.63
2022-09-07T02:46:18.758Z,100240.59
2022-09-07T02:50:46.700Z,100241.41
2022-09-07T02:55:07.384Z,100238.81
2022-09-07T02:59:25.180Z,100242.38
2022-09-07T03:03:45.418Z,100236.81
2022-09-07T03:08:12.923Z,100231.28
2022-09-07T03:12:25.280Z,100218.22
2022-09-07T03:16:29.040Z,100220.16
2022-09-07T03:20:50.218Z,100225.13
2022-09-07T03:25:15.881Z,100220.94
2022-09-07T03:29:25.804Z,100218.69
2022-09-07T03:33:29.455Z,100211.81
2022-09-07T03:37:33.590Z,100220.09
2022-09-07T03:41:47.915Z,100215.16
2022-09-07T03:45:58.196Z,100204.03
2022-09-07T03:50:02.280Z,100198.47
2022-09-07T03:54:05.812Z,100189.03
2022-09-07T03:58:09.479Z,100203.34
2022-09-07T04:02:29.334Z,100204.22
2022-09-07T04:06:34.775Z,100208.31
2022-09-07T04:10:39.546Z,100202.53
2022-09-07T04:14:45.122Z,100186.72
2022-09-07T04:18:55.037Z,100183.44
2022-09-07T04:22:58.443Z,100187.34
2022-09-07T04:27:09.178Z,100188.50
2022-09-07T04:31:13.330Z,100190.06
2022-09-07T04:35:19.027Z,100182.28
2022-09-07T04:39:23.086Z,100186.09
2022-09-07T04:43:26.713Z,100186.59
2022-09-07T04:47:30.802Z,100193.03
2022-09-07T04:51:36.704Z,100202.22
2022-09-07T04:55:39.986Z,100193.28
2022-09-07T04:59:43.421Z,100187.75
2022-09-07T05:03:47.325Z,100186.94
2022-09-07T05:08:41.858Z,100187.25
2022-09-07T05:12:45.562Z,100183.66
2022-09-07T05:16:51.600Z,100191.44
2022-09-07T05:21:22.214Z,100195.00
2022-09-07T05:25:31.660Z,100188.22
2022-09-07T05:38:25.927Z,100184.66
2022-09-07T05:42:33.769Z,100183.56
2022-09-07T05:46:37.082Z,100193.63
2022-09-07T05:50:41.033Z,100193.28
2022-09-07T05:54:44.218Z,100208.00
2022-09-07T05:58:50.877Z,100215.31
2022-09-07T06:02:54.018Z,100199.91
2022-09-07T06:11:25.586Z,100204.03
2022-09-07T06:15:30.036Z,100208.38
2022-09-07T06:19:33.320Z,100228.13
2022-09-07T06:23:41.496Z,100227.66
2022-09-07T06:27:44.685Z,100239.00
2022-09-07T06:36:20.322Z,100234.34
2022-09-07T06:40:23.954Z,100240.56
2022-09-07T06:44:27.048Z,100244.69
2022-09-07T06:48:31.928Z,100252.13
2022-09-07T06:57:09.437Z,100255.28
2022-09-07T07:01:23.992Z,100256.63
2022-09-07T07:05:28.461Z,100257.16
2022-09-07T07:09:31.613Z,100262.03
2022-09-07T07:13:35.299Z,100262.22
2022-09-07T07:17:38.391Z,100271.63
2022-09-07T07:22:10.397Z,100270.97
2022-09-07T07:26:07.997Z,100284.81
2022-09-07T07:30:11.991Z,100287.91
2022-09-07T07:34:16.099Z,100290.91
2022-09-07T07:42:44.069Z,100275.88
2022-09-07T07:46:51.437Z,100284.03
2022-09-07T07:51:06.442Z,100282.47
2022-09-07T07:59:37.494Z,100291.09
2022-09-07T08:03:43.815Z,100288.25
2022-09-07T08:12:29.103Z,100286.63
2022-09-07T08:16:34.210Z,100279.75
2022-09-07T08:20:40.831Z,100276.56
2022-09-07T08:24:43.885Z,100271.56
2022-09-07T08:28:48.559Z,100283.25
2022-09-07T08:32:51.836Z,100281.28
2022-09-07T08:37:01.077Z,100285.16
2022-09-07T08:41:24.241Z,100282.66
2022-09-07T08:45:33.296Z,100277.66
2022-09-07T08:49:51.525Z,100268.25
2022-09-07T08:53:55.019Z,100260.66
2022-09-07T08:58:06.401Z,100275.84
2022-09-07T09:02:35.172Z,100280.94
2022-09-07T09:06:46.885Z,100295.28
2022-09-07T09:11:01.764Z,100305.44
2022-09-07T09:15:16.450Z,100330.03
2022-09-07T09:19:53.843Z,100328.19
2022-09-07T09:24:03.553Z,100339.50
2022-09-07T09:28:13.316Z,100344.81
2022-09-07T09:32:34.657Z,100333.75
2022-09-07T09:36:48.194Z,100349.19
2022-09-07T09:41:17.052Z,100367.34
2022-09-07T09:50:03.589Z,100369.59
2022-09-07T09:54:22.776Z,100351.69
2022-09-07T10:07:55.570Z,100370.03
2022-09-07T10:12:05.537Z,100371.16
2022-09-07T10:16:16.266Z,100358.94
2022-09-07T10:20:35.034Z,100344.59
2022-09-07T10:24:46.618Z,100345.53
2022-09-07T10:29:09.277Z,100335.44
2022-09-07T10:33:28.757Z,100336.06
2022-09-07T10:37:46.711Z,100340.44
2022-09-07T10:42:13.367Z,100334.56
2022-09-07T10:51:05.066Z,100329.72
2022-09-07T10:55:17.452Z,100320.91
2022-09-07T11:04:31.472Z,100310.75
2022-09-07T11:14:12.417Z,100308.19
2022-09-07T11:18:25.114Z,100306.53
2022-09-07T11:23:00.798Z,100291.16
2022-09-07T11:27:26.784Z,100290.09
2022-09-07T11:31:46.720Z,100289.41
2022-09-07T11:36:01.384Z,100280.81
2022-09-07T11:40:37.262Z,100270.31
2022-09-07T11:45:00.331Z,100269.09
2022-09-07T11:49:26.535Z,100275.47
2022-09-07T11:53:37.559Z,100273.19
2022-09-07T11:57:59.811Z,100272.25
2022-09-07T12:02:48.670Z,100271.13
2022-09-07T12:07:24.222Z,100276.25
2022-09-07T12:12:20.386Z,100266.03
2022-09-07T12:17:07.550Z,100279.06
2022-09-07T12:27:04.640Z,100263.63
2022-09-07T12:31:16.912Z,100246.94
2022-09-07T12:35:44.986Z,100252.75
2022-09-07T12:39:55.241Z,100253.84
2022-09-07T12:44:18.857Z,100249.06
2022-09-07T12:49:04.573Z,100242.94
2022-09-07T12:53:31.768Z,100244.16
2022-09-07T12:57:45.214Z,100242.81
2022-09-07T13:01:58.724Z,100238.19
2022-09-07T13:07:01.638Z,100226.03
2022-09-07T13:10:56.301Z,100223.69
2022-09-07T13:15:24.037Z,100220.94
2022-09-07T13:20:10.470Z,100215.25
2022-09-07T13:24:59.870Z,100205.75
2022-09-07T13:29:28.153Z,100201.09
2022-09-07T13:33:53.322Z,100199.56
2022-09-07T13:38:04.052Z,100196.41
2022-09-07T13:42:40.334Z,100188.66
2022-09-07T13:47:12.092Z,100200.25
2022-09-07T13:51:43.142Z,100185.03
2022-09-07T13:56:10.538Z,100164.88
2022-09-07T14:01:52.145Z,100183.56
2022-09-07T15:43:25.705Z,100135.59
2022-09-07T15:47:48.175Z,100137.00
2022-09-07T15:52:06.823Z,100118.78
2022-09-07T15:56:12.411Z,100117.91
2022-09-07T16:00:17.943Z,100110.31
2022-09-07T16:09:06.194Z,100118.22
2022-09-07T16:14:02.360Z,100121.09
2022-09-07T16:18:18.003Z,100113.44
2022-09-07T16:27:11.211Z,100096.59
2022-09-07T16:31:21.188Z,100099.66
2022-09-07T16:35:55.780Z,100093.28
2022-09-07T16:39:59.625Z,100085.50
2022-09-07T16:44:04.038Z,100083.47
2022-09-07T16:48:07.830Z,100080.78
2022-09-07T16:52:15.035Z,100080.78
2022-09-07T16:56:30.836Z,100079.13
2022-09-07T17:00:34.755Z,100085.56
2022-09-07T17:04:51.077Z,100095.38
2022-09-07T17:09:19.569Z,100085.25
2022-09-07T17:13:54.599Z,100075.59
2022-09-07T17:17:58.682Z,100071.34
2022-09-07T17:22:02.577Z,100071.19
2022-09-07T17:26:31.391Z,100061.84
2022-09-07T17:30:40.570Z,100058.78
2022-09-07T17:34:44.639Z,100054.84
2022-09-07T17:47:37.470Z,100035.75
2022-09-07T17:51:41.576Z,100040.69
2022-09-07T17:56:03.814Z,100048.72
2022-09-07T18:00:12.692Z,100054.97
2022-09-07T18:04:17.363Z,100059.78
2022-09-07T18:08:49.586Z,100074.97
2022-09-07T18:13:18.199Z,100080.31
2022-09-07T18:18:09.512Z,100075.69
2022-09-07T18:22:11.252Z,100077.00
2022-09-07T18:26:16.475Z,100087.16
2022-09-07T18:30:20.513Z,100082.88
2022-09-07T18:34:25.858Z,100093.03
2022-09-07T18:38:44.017Z,100100.91
2022-09-07T18:43:08.119Z,100104.00
2022-09-07T18:47:20.787Z,100112.66
2022-09-07T18:56:16.096Z,100097.59
2022-09-07T19:00:20.084Z,100109.88
2022-09-07T19:09:22.804Z,100115.84
2022-09-07T19:13:41.480Z,100116.16
2022-09-07T19:17:49.408Z,100104.50
2022-09-07T19:21:53.137Z,100100.06
2022-09-07T19:30:25.022Z,100106.16
2022-09-07T19:34:28.736Z,100101.72
2022-09-07T19:38:32.677Z,100101.16
2022-09-07T19:42:37.490Z,100098.34
2022-09-07T19:46:47.208Z,100106.59
2022-09-07T19:50:51.782Z,100116.91
2022-09-07T19:54:57.224Z,100096.69
2022-09-07T19:59:05.641Z,100090.81
2022-09-07T20:03:10.679Z,100089.69
2022-09-07T20:07:39.772Z,100083.81
2022-09-07T20:12:55.959Z,100081.56
2022-09-07T20:16:59.719Z,100076.75
2022-09-07T20:21:04.918Z,100084.56
2022-09-07T20:25:13.116Z,100082.31
2022-09-07T20:29:27.343Z,100083.69
2022-09-07T20:33:35.920Z,100020.53
2022-09-07T20:37:39.490Z,100014.47
2022-09-07T20:41:42.984Z,100011.69
2022-09-07T20:45:46.480Z,100002.84
2022-09-07T20:50:00.590Z,99993.41
2022-09-07T20:54:03.876Z,99998.38
2022-09-07T20:58:06.990Z,99993.41
2022-09-07T21:02:21.546Z,99989.97
2022-09-07T21:06:38.522Z,99994.66
2022-09-07T21:10:42.317Z,99996.28
2022-09-07T21:14:46.493Z,99992.69
2022-09-07T21:18:58.815Z,99996.34
2022-09-07T21:23:30.455Z,99989.72
2022-09-07T21:27:52.475Z,99992.13
2022-09-07T21:32:34.954Z,99983.25
2022-09-07T21:36:42.125Z,99986.91
2022-09-07T21:41:02.786Z,99982.19
2022-09-07T21:45:10.499Z,99989.16
2022-09-07T21:49:13.807Z,99981.47
2022-09-07T21:53:17.491Z,99985.59
2022-09-07T21:57:26.282Z,99988.88
2022-09-07T22:01:30.982Z,99980.66
2022-09-07T22:06:05.268Z,99975.09
2022-09-07T22:10:30.082Z,99994.22
2022-09-07T22:14:36.843Z,99988.47
2022-09-07T22:18:43.927Z,99998.47
2022-09-07T22:22:47.566Z,99999.59
2022-09-07T22:26:54.389Z,99992.97
2022-09-07T22:31:19.200Z,99985.75
2022-09-07T22:35:30.775Z,99986.34
2022-09-07T22:39:34.173Z,99980.78
2022-09-07T22:43:37.786Z,99975.25
2022-09-07T22:47:43.440Z,99974.72
2022-09-07T22:52:15.113Z,99957.28
2022-09-07T22:56:39.650Z,99953.09
2022-09-07T23:01:03.589Z,99942.56
2022-09-07T23:05:20.830Z,99947.00
2022-09-07T23:09:24.545Z,99945.34
2022-09-07T23:13:43.590Z,99939.50
2022-09-07T23:18:36.584Z,99928.16
2022-09-07T23:22:44.744Z,99917.06
2022-09-07T23:26:59.081Z,99912.59
2022-09-07T23:31:06.798Z,99916.44
2022-09-07T23:35:24.364Z,99919.53
2022-09-07T23:39:28.801Z,99918.16
2022-09-07T23:43:32.144Z,99904.81
2022-09-07T23:47:35.910Z,99892.31
2022-09-07T23:52:10.231Z,99889.22
2022-09-07T23:56:17.118Z,99884.78
